sensor_id;sensor_type;location;lat;lon;timestamp;P1;durP1;ratioP1;P2;durP2;ratioP2
74074;SDS011;62428;51.412;5.432;2022-08-04T00:08:33;13.48;;;2.47;;
74074;SDS011;62428;51.412;5.432;2022-08-04T00:11:02;7.70;;;2.40;;
74074;SDS011;62428;51.412;5.432;2022-08-04T00:13:29;6.50;;;2.40;;
74074;SDS011;62428;51.412;5.432;2022-08-04T00:16:00;7.05;;;2.47;;
74074;SDS011;62428;51.412;5.432;2022-08-04T00:18:33;5.05;;;2.42;;
74074;SDS011;62428;51.412;5.432;2022-08-04T00:21:03;5.95;;;2.38;;
74074;SDS011;62428;51.412;5.432;2022-08-04T00:23:32;9.30;;;2.93;;
74074;SDS011;62428;51.412;5.432;2022-08-04T00:25:59;7.65;;;2.83;;
74074;SDS011;62428;51.412;5.432;2022-08-04T00:28:25;8.00;;;2.60;;
74074;SDS011;62428;51.412;5.432;2022-08-04T00:30:52;4.97;;;2.80;;
74074;SDS011;62428;51.412;5.432;2022-08-04T00:33:18;8.23;;;2.88;;
74074;SDS011;62428;51.412;5.432;2022-08-04T00:35:45;5.87;;;2.80;;
74074;SDS011;62428;51.412;5.432;2022-08-04T00:38:12;8.93;;;2.92;;
74074;SDS011;62428;51.412;5.432;2022-08-04T00:49:38;7.73;;;2.60;;
74074;SDS011;62428;51.412;5.432;2022-08-04T00:52:21;11.43;;;2.85;;
74074;SDS011;62428;51.412;5.432;2022-08-04T01:00:53;7.50;;;2.90;;
74074;SDS011;62428;51.412;5.432;2022-08-04T01:06:29;10.13;;;2.45;;
74074;SDS011;62428;51.412;5.432;2022-08-04T01:14:38;8.43;;;2.83;;
74074;SDS011;62428;51.412;5.432;2022-08-04T01:17:23;6.30;;;2.90;;
74074;SDS011;62428;51.412;5.432;2022-08-04T01:20:10;10.45;;;2.80;;
74074;SDS011;62428;51.412;5.432;2022-08-04T01:22:49;6.57;;;2.40;;
74074;SDS011;62428;51.412;5.432;2022-08-04T01:25:33;8.00;;;2.50;;
74074;SDS011;62428;51.412;5.432;2022-08-04T01:31:02;8.10;;;2.53;;
74074;SDS011;62428;51.412;5.432;2022-08-04T01:33:45;6.22;;;2.22;;
74074;SDS011;62428;51.412;5.432;2022-08-04T01:36:13;9.73;;;2.50;;
74074;SDS011;62428;51.412;5.432;2022-08-04T01:38:39;7.40;;;2.50;;
74074;SDS011;62428;51.412;5.432;2022-08-04T01:41:06;6.70;;;2.42;;
74074;SDS011;62428;51.412;5.432;2022-08-04T01:43:39;8.35;;;2.45;;
74074;SDS011;62428;51.412;5.432;2022-08-04T01:46:08;13.23;;;2.88;;
74074;SDS011;62428;51.412;5.432;2022-08-04T01:48:35;9.77;;;2.63;;
74074;SDS011;62428;51.412;5.432;2022-08-04T01:51:04;9.73;;;2.70;;
74074;SDS011;62428;51.412;5.432;2022-08-04T01:53:35;7.10;;;2.50;;
74074;SDS011;62428;51.412;5.432;2022-08-04T01:56:05;7.35;;;2.20;;
74074;SDS011;62428;51.412;5.432;2022-08-04T01:58:33;6.40;;;2.28;;
74074;SDS011;62428;51.412;5.432;2022-08-04T02:01:00;7.55;;;2.10;;
74074;SDS011;62428;51.412;5.432;2022-08-04T02:03:28;6.77;;;1.90;;
74074;SDS011;62428;51.412;5.432;2022-08-04T02:05:58;6.35;;;2.10;;
74074;SDS011;62428;51.412;5.432;2022-08-04T02:08:50;7.75;;;2.40;;
74074;SDS011;62428;51.412;5.432;2022-08-04T02:11:20;7.07;;;2.50;;
74074;SDS011;62428;51.412;5.432;2022-08-04T02:16:42;6.67;;;2.37;;
74074;SDS011;62428;51.412;5.432;2022-08-04T02:19:23;7.10;;;2.38;;
74074;SDS011;62428;51.412;5.432;2022-08-04T02:21:57;8.68;;;2.47;;
74074;SDS011;62428;51.412;5.432;2022-08-04T02:24:31;9.63;;;2.35;;
74074;SDS011;62428;51.412;5.432;2022-08-04T02:26:56;7.97;;;2.20;;
74074;SDS011;62428;51.412;5.432;2022-08-04T02:32:11;6.45;;;2.28;;
74074;SDS011;62428;51.412;5.432;2022-08-04T02:37:16;7.15;;;2.20;;
74074;SDS011;62428;51.412;5.432;2022-08-04T02:39:42;4.67;;;2.00;;
74074;SDS011;62428;51.412;5.432;2022-08-04T02:42:09;7.30;;;2.00;;
74074;SDS011;62428;51.412;5.432;2022-08-04T02:44:36;5.20;;;2.00;;
74074;SDS011;62428;51.412;5.432;2022-08-04T02:47:03;4.75;;;1.88;;
74074;SDS011;62428;51.412;5.432;2022-08-04T02:49:30;8.05;;;2.30;;
74074;SDS011;62428;51.412;5.432;2022-08-04T02:52:00;8.90;;;1.97;;
74074;SDS011;62428;51.412;5.432;2022-08-04T02:54:28;6.35;;;2.03;;
74074;SDS011;62428;51.412;5.432;2022-08-04T02:56:59;7.25;;;2.65;;
74074;SDS011;62428;51.412;5.432;2022-08-04T02:59:26;6.13;;;2.03;;
74074;SDS011;62428;51.412;5.432;2022-08-04T03:01:54;6.03;;;2.10;;
74074;SDS011;62428;51.412;5.432;2022-08-04T03:10:04;7.93;;;2.30;;
74074;SDS011;62428;51.412;5.432;2022-08-04T03:24:05;6.20;;;2.20;;
74074;SDS011;62428;51.412;5.432;2022-08-04T03:34:41;7.85;;;2.10;;
74074;SDS011;62428;51.412;5.432;2022-08-04T03:37:38;6.53;;;2.03;;
74074;SDS011;62428;51.412;5.432;2022-08-04T04:00:07;10.50;;;2.37;;
74074;SDS011;62428;51.412;5.432;2022-08-04T04:07:47;13.60;;;2.83;;
74074;SDS011;62428;51.412;5.432;2022-08-04T04:13:08;7.78;;;2.08;;
74074;SDS011;62428;51.412;5.432;2022-08-04T04:24:16;11.97;;;2.50;;
74074;SDS011;62428;51.412;5.432;2022-08-04T04:29:58;9.82;;;2.35;;
74074;SDS011;62428;51.412;5.432;2022-08-04T04:32:35;8.55;;;2.40;;
74074;SDS011;62428;51.412;5.432;2022-08-04T04:35:26;8.02;;;2.42;;
74074;SDS011;62428;51.412;5.432;2022-08-04T04:43:51;7.32;;;1.92;;
74074;SDS011;62428;51.412;5.432;2022-08-04T04:49:24;8.98;;;1.90;;
74074;SDS011;62428;51.412;5.432;2022-08-04T04:51:59;7.40;;;2.00;;
74074;SDS011;62428;51.412;5.432;2022-08-04T04:54:38;7.50;;;1.95;;
74074;SDS011;62428;51.412;5.432;2022-08-04T04:57:14;11.00;;;2.20;;
74074;SDS011;62428;51.412;5.432;2022-08-04T04:59:59;8.25;;;1.90;;
74074;SDS011;62428;51.412;5.432;2022-08-04T05:11:11;12.25;;;2.47;;
74074;SDS011;62428;51.412;5.432;2022-08-04T05:13:53;8.68;;;2.05;;
74074;SDS011;62428;51.412;5.432;2022-08-04T05:16:45;9.38;;;2.40;;
74074;SDS011;62428;51.412;5.432;2022-08-04T05:22:06;16.83;;;2.70;;
74074;SDS011;62428;51.412;5.432;2022-08-04T05:24:40;20.65;;;2.80;;
74074;SDS011;62428;51.412;5.432;2022-08-04T05:27:13;19.23;;;2.80;;
74074;SDS011;62428;51.412;5.432;2022-08-04T05:29:51;23.17;;;3.03;;
74074;SDS011;62428;51.412;5.432;2022-08-04T05:32:22;18.13;;;2.50;;
74074;SDS011;62428;51.412;5.432;2022-08-04T05:35:09;20.17;;;2.78;;
74074;SDS011;62428;51.412;5.432;2022-08-04T05:37:39;13.60;;;2.47;;
74074;SDS011;62428;51.412;5.432;2022-08-04T05:40:08;14.63;;;2.58;;
74074;SDS011;62428;51.412;5.432;2022-08-04T05:42:36;12.77;;;2.72;;
74074;SDS011;62428;51.412;5.432;2022-08-04T05:45:03;16.73;;;2.67;;
74074;SDS011;62428;51.412;5.432;2022-08-04T05:47:31;11.93;;;2.42;;
74074;SDS011;62428;51.412;5.432;2022-08-04T05:49:57;12.50;;;3.33;;
74074;SDS011;62428;51.412;5.432;2022-08-04T05:52:24;10.10;;;2.85;;
74074;SDS011;62428;51.412;5.432;2022-08-04T05:54:51;10.85;;;2.30;;
74074;SDS011;62428;51.412;5.432;2022-08-04T05:57:17;8.60;;;2.27;;
74074;SDS011;62428;51.412;5.432;2022-08-04T05:59:43;7.22;;;2.30;;
74074;SDS011;62428;51.412;5.432;2022-08-04T06:02:13;9.45;;;2.10;;
74074;SDS011;62428;51.412;5.432;2022-08-04T06:04:42;9.10;;;2.22;;
74074;SDS011;62428;51.412;5.432;2022-08-04T06:07:11;10.55;;;2.22;;
74074;SDS011;62428;51.412;5.432;2022-08-04T06:09:37;6.13;;;2.13;;
74074;SDS011;62428;51.412;5.432;2022-08-04T06:12:03;13.63;;;2.33;;
74074;SDS011;62428;51.412;5.432;2022-08-04T06:14:39;9.45;;;2.15;;
74074;SDS011;62428;51.412;5.432;2022-08-04T06:17:07;12.30;;;2.33;;
74074;SDS011;62428;51.412;5.432;2022-08-04T06:19:35;13.15;;;2.88;;
74074;SDS011;62428;51.412;5.432;2022-08-04T06:22:03;16.83;;;3.20;;
74074;SDS011;62428;51.412;5.432;2022-08-04T06:24:31;17.75;;;2.95;;
74074;SDS011;62428;51.412;5.432;2022-08-04T06:26:59;8.93;;;2.70;;
74074;SDS011;62428;51.412;5.432;2022-08-04T06:29:28;10.93;;;2.90;;
74074;SDS011;62428;51.412;5.432;2022-08-04T06:32:00;8.27;;;2.90;;
74074;SDS011;62428;51.412;5.432;2022-08-04T06:34:37;13.05;;;2.70;;
74074;SDS011;62428;51.412;5.432;2022-08-04T06:37:03;5.82;;;2.40;;
74074;SDS011;62428;51.412;5.432;2022-08-04T06:39:31;8.15;;;2.60;;
74074;SDS011;62428;51.412;5.432;2022-08-04T06:41:57;9.03;;;2.43;;
74074;SDS011;62428;51.412;5.432;2022-08-04T06:44:23;9.55;;;2.60;;
74074;SDS011;62428;51.412;5.432;2022-08-04T06:46:50;13.35;;;3.10;;
74074;SDS011;62428;51.412;5.432;2022-08-04T06:49:17;11.55;;;3.10;;
74074;SDS011;62428;51.412;5.432;2022-08-04T06:51:43;12.33;;;2.90;;
74074;SDS011;62428;51.412;5.432;2022-08-04T06:54:10;8.02;;;2.58;;
74074;SDS011;62428;51.412;5.432;2022-08-04T06:56:36;9.57;;;3.20;;
74074;SDS011;62428;51.412;5.432;2022-08-04T06:59:04;13.57;;;3.90;;
74074;SDS011;62428;51.412;5.432;2022-08-04T07:01:30;15.52;;;3.22;;
74074;SDS011;62428;51.412;5.432;2022-08-04T07:03:56;11.52;;;3.47;;
74074;SDS011;62428;51.412;5.432;2022-08-04T07:06:23;10.02;;;3.58;;
74074;SDS011;62428;51.412;5.432;2022-08-04T07:08:49;6.93;;;3.40;;
74074;SDS011;62428;51.412;5.432;2022-08-04T07:11:15;9.68;;;3.50;;
74074;SDS011;62428;51.412;5.432;2022-08-04T07:13:41;14.30;;;4.10;;
74074;SDS011;62428;51.412;5.432;2022-08-04T07:16:08;10.13;;;4.10;;
74074;SDS011;62428;51.412;5.432;2022-08-04T07:18:37;15.37;;;4.43;;
74074;SDS011;62428;51.412;5.432;2022-08-04T07:21:02;13.68;;;4.90;;
74074;SDS011;62428;51.412;5.432;2022-08-04T07:23:28;9.70;;;4.60;;
74074;SDS011;62428;51.412;5.432;2022-08-04T07:25:54;12.97;;;5.53;;
74074;SDS011;62428;51.412;5.432;2022-08-04T07:28:22;16.58;;;6.25;;
74074;SDS011;62428;51.412;5.432;2022-08-04T07:30:51;12.75;;;6.13;;
74074;SDS011;62428;51.412;5.432;2022-08-04T07:33:18;11.80;;;5.88;;
74074;SDS011;62428;51.412;5.432;2022-08-04T07:35:48;12.33;;;5.77;;
74074;SDS011;62428;51.412;5.432;2022-08-04T07:38:15;13.52;;;5.90;;
74074;SDS011;62428;51.412;5.432;2022-08-04T07:40:41;14.10;;;6.57;;
74074;SDS011;62428;51.412;5.432;2022-08-04T07:43:07;17.93;;;6.90;;
74074;SDS011;62428;51.412;5.432;2022-08-04T07:45:33;12.18;;;6.63;;
74074;SDS011;62428;51.412;5.432;2022-08-04T07:47:59;13.80;;;7.47;;
74074;SDS011;62428;51.412;5.432;2022-08-04T07:50:25;21.20;;;9.07;;
74074;SDS011;62428;51.412;5.432;2022-08-04T07:52:52;11.85;;;7.35;;
74074;SDS011;62428;51.412;5.432;2022-08-04T07:55:18;15.52;;;7.70;;
74074;SDS011;62428;51.412;5.432;2022-08-04T07:57:45;14.73;;;7.13;;
74074;SDS011;62428;51.412;5.432;2022-08-04T08:00:10;15.60;;;6.97;;
74074;SDS011;62428;51.412;5.432;2022-08-04T08:02:38;18.52;;;6.72;;
74074;SDS011;62428;51.412;5.432;2022-08-04T08:05:10;11.73;;;6.63;;
74074;SDS011;62428;51.412;5.432;2022-08-04T08:07:37;13.63;;;6.90;;
74074;SDS011;62428;51.412;5.432;2022-08-04T08:10:03;16.30;;;5.63;;
74074;SDS011;62428;51.412;5.432;2022-08-04T08:12:30;19.20;;;7.07;;
74074;SDS011;62428;51.412;5.432;2022-08-04T08:14:57;14.05;;;5.68;;
74074;SDS011;62428;51.412;5.432;2022-08-04T08:17:23;11.68;;;5.55;;
74074;SDS011;62428;51.412;5.432;2022-08-04T08:19:48;12.67;;;5.17;;
74074;SDS011;62428;51.412;5.432;2022-08-04T08:22:15;9.73;;;5.35;;
74074;SDS011;62428;51.412;5.432;2022-08-04T08:24:40;13.40;;;5.53;;
74074;SDS011;62428;51.412;5.432;2022-08-04T08:27:05;9.47;;;4.57;;
74074;SDS011;62428;51.412;5.432;2022-08-04T08:29:34;10.70;;;5.20;;
74074;SDS011;62428;51.412;5.432;2022-08-04T08:32:00;10.48;;;4.68;;
74074;SDS011;62428;51.412;5.432;2022-08-04T08:34:27;7.40;;;4.13;;
74074;SDS011;62428;51.412;5.432;2022-08-04T08:37:12;9.18;;;3.92;;
74074;SDS011;62428;51.412;5.432;2022-08-04T08:48:06;8.65;;;3.75;;
74074;SDS011;62428;51.412;5.432;2022-08-04T09:08:18;9.65;;;2.50;;
74074;SDS011;62428;51.412;5.432;2022-08-04T09:13:49;7.55;;;2.38;;
74074;SDS011;62428;51.412;5.432;2022-08-04T09:16:26;8.95;;;2.05;;
74074;SDS011;62428;51.412;5.432;2022-08-04T09:24:56;7.63;;;2.20;;
74074;SDS011;62428;51.412;5.432;2022-08-04T09:27:32;6.40;;;2.25;;
74074;SDS011;62428;51.412;5.432;2022-08-04T09:30:11;8.75;;;2.20;;
74074;SDS011;62428;51.412;5.432;2022-08-04T09:35:32;6.47;;;2.53;;
74074;SDS011;62428;51.412;5.432;2022-08-04T09:38:08;5.33;;;2.17;;
74074;SDS011;62428;51.412;5.432;2022-08-04T09:40:47;8.85;;;2.70;;
74074;SDS011;62428;51.412;5.432;2022-08-04T09:45:55;11.55;;;2.17;;
74074;SDS011;62428;51.412;5.432;2022-08-04T09:48:43;7.55;;;2.38;;
74074;SDS011;62428;51.412;5.432;2022-08-04T09:54:24;7.10;;;2.15;;
74074;SDS011;62428;51.412;5.432;2022-08-04T10:00:07;7.28;;;2.42;;
74074;SDS011;62428;51.412;5.432;2022-08-04T10:02:38;9.65;;;1.80;;
74074;SDS011;62428;51.412;5.432;2022-08-04T10:05:17;5.13;;;2.00;;
74074;SDS011;62428;51.412;5.432;2022-08-04T10:08:03;8.10;;;1.85;;
74074;SDS011;62428;51.412;5.432;2022-08-04T10:10:36;8.60;;;2.60;;
74074;SDS011;62428;51.412;5.432;2022-08-04T10:13:22;13.88;;;2.67;;
74074;SDS011;62428;51.412;5.432;2022-08-04T10:19:01;7.60;;;2.47;;
74074;SDS011;62428;51.412;5.432;2022-08-04T10:21:51;12.32;;;2.60;;
74074;SDS011;62428;51.412;5.432;2022-08-04T10:24:30;10.73;;;2.80;;
74074;SDS011;62428;51.412;5.432;2022-08-04T10:27:15;15.15;;;2.63;;
74074;SDS011;62428;51.412;5.432;2022-08-04T10:29:56;12.77;;;2.50;;
74074;SDS011;62428;51.412;5.432;2022-08-04T10:32:32;10.37;;;2.33;;
74074;SDS011;62428;51.412;5.432;2022-08-04T10:35:12;13.57;;;2.83;;
74074;SDS011;62428;51.412;5.432;2022-08-04T10:40:39;10.82;;;2.53;;
74074;SDS011;62428;51.412;5.432;2022-08-04T10:57:24;7.30;;;2.70;;
74074;SDS011;62428;51.412;5.432;2022-08-04T11:02:42;10.65;;;2.67;;
74074;SDS011;62428;51.412;5.432;2022-08-04T11:07:44;10.57;;;2.28;;
74074;SDS011;62428;51.412;5.432;2022-08-04T11:10:13;9.38;;;2.47;;
74074;SDS011;62428;51.412;5.432;2022-08-04T11:12:41;8.30;;;2.50;;
74074;SDS011;62428;51.412;5.432;2022-08-04T11:15:10;9.43;;;2.47;;
74074;SDS011;62428;51.412;5.432;2022-08-04T11:17:42;7.25;;;2.47;;
74074;SDS011;62428;51.412;5.432;2022-08-04T11:20:27;8.70;;;2.03;;
74074;SDS011;62428;51.412;5.432;2022-08-04T11:23:02;10.80;;;2.38;;
74074;SDS011;62428;51.412;5.432;2022-08-04T11:25:34;7.20;;;2.60;;
74074;SDS011;62428;51.412;5.432;2022-08-04T11:28:22;10.00;;;2.60;;
74074;SDS011;62428;51.412;5.432;2022-08-04T11:31:10;9.35;;;2.17;;
74074;SDS011;62428;51.412;5.432;2022-08-04T11:36:29;11.32;;;2.65;;
74074;SDS011;62428;51.412;5.432;2022-08-04T11:39:02;8.70;;;2.63;;
74074;SDS011;62428;51.412;5.432;2022-08-04T11:41:47;11.27;;;2.50;;
74074;SDS011;62428;51.412;5.432;2022-08-04T11:44:15;8.85;;;2.50;;
74074;SDS011;62428;51.412;5.432;2022-08-04T11:46:46;6.15;;;2.00;;
74074;SDS011;62428;51.412;5.432;2022-08-04T11:49:20;9.93;;;2.95;;
74074;SDS011;62428;51.412;5.432;2022-08-04T11:51:55;4.73;;;2.13;;
74074;SDS011;62428;51.412;5.432;2022-08-04T11:54:22;8.65;;;2.50;;
74074;SDS011;62428;51.412;5.432;2022-08-04T11:56:47;7.07;;;2.80;;
74074;SDS011;62428;51.412;5.432;2022-08-04T11:59:13;6.63;;;2.30;;
74074;SDS011;62428;51.412;5.432;2022-08-04T12:07:21;16.23;;;3.20;;
74074;SDS011;62428;51.412;5.432;2022-08-04T12:10:06;8.10;;;2.70;;
74074;SDS011;62428;51.412;5.432;2022-08-04T12:18:46;7.72;;;2.58;;
74074;SDS011;62428;51.412;5.432;2022-08-04T12:21:22;5.67;;;2.10;;
74074;SDS011;62428;51.412;5.432;2022-08-04T12:24:13;8.15;;;2.70;;
74074;SDS011;62428;51.412;5.432;2022-08-04T12:26:42;6.90;;;2.47;;
74074;SDS011;62428;51.412;5.432;2022-08-04T12:29:14;7.10;;;2.08;;
74074;SDS011;62428;51.412;5.432;2022-08-04T12:31:52;8.13;;;2.40;;
74074;SDS011;62428;51.412;5.432;2022-08-04T12:39:52;8.50;;;3.08;;
74074;SDS011;62428;51.412;5.432;2022-08-04T12:42:23;11.98;;;3.03;;
74074;SDS011;62428;51.412;5.432;2022-08-04T12:44:56;10.57;;;3.00;;
74074;SDS011;62428;51.412;5.432;2022-08-04T12:47:23;6.33;;;2.53;;
74074;SDS011;62428;51.412;5.432;2022-08-04T12:49:50;7.35;;;2.85;;
74074;SDS011;62428;51.412;5.432;2022-08-04T12:52:17;10.55;;;2.50;;
74074;SDS011;62428;51.412;5.432;2022-08-04T12:54:44;8.52;;;2.60;;
74074;SDS011;62428;51.412;5.432;2022-08-04T12:57:12;6.97;;;2.13;;
74074;SDS011;62428;51.412;5.432;2022-08-04T12:59:42;11.10;;;2.70;;
74074;SDS011;62428;51.412;5.432;2022-08-04T13:02:11;6.97;;;2.15;;
74074;SDS011;62428;51.412;5.432;2022-08-04T13:04:47;7.63;;;3.28;;
74074;SDS011;62428;51.412;5.432;2022-08-04T13:07:15;7.70;;;3.17;;
74074;SDS011;62428;51.412;5.432;2022-08-04T13:09:44;10.23;;;4.10;;
74074;SDS011;62428;51.412;5.432;2022-08-04T13:12:12;17.20;;;3.17;;
74074;SDS011;62428;51.412;5.432;2022-08-04T13:14:40;9.13;;;3.38;;
74074;SDS011;62428;51.412;5.432;2022-08-04T13:17:12;7.43;;;3.47;;
74074;SDS011;62428;51.412;5.432;2022-08-04T13:19:38;6.45;;;3.30;;
74074;SDS011;62428;51.412;5.432;2022-08-04T13:22:10;8.50;;;3.58;;
74074;SDS011;62428;51.412;5.432;2022-08-04T13:24:35;8.97;;;4.53;;
74074;SDS011;62428;51.412;5.432;2022-08-04T13:27:05;10.57;;;4.22;;
74074;SDS011;62428;51.412;5.432;2022-08-04T13:29:39;6.15;;;3.72;;
74074;SDS011;62428;51.412;5.432;2022-08-04T13:32:07;8.05;;;3.58;;
74074;SDS011;62428;51.412;5.432;2022-08-04T13:34:35;8.00;;;4.03;;
74074;SDS011;62428;51.412;5.432;2022-08-04T13:37:05;6.50;;;3.40;;
74074;SDS011;62428;51.412;5.432;2022-08-04T13:39:31;9.43;;;3.15;;
74074;SDS011;62428;51.412;5.432;2022-08-04T13:41:59;5.45;;;3.55;;
74074;SDS011;62428;51.412;5.432;2022-08-04T13:44:30;8.85;;;3.45;;
74074;SDS011;62428;51.412;5.432;2022-08-04T13:46:59;7.70;;;3.40;;
74074;SDS011;62428;51.412;5.432;2022-08-04T13:49:29;5.83;;;3.10;;
74074;SDS011;62428;51.412;5.432;2022-08-04T13:51:55;7.03;;;2.92;;
74074;SDS011;62428;51.412;5.432;2022-08-04T13:54:23;7.13;;;2.97;;
74074;SDS011;62428;51.412;5.432;2022-08-04T13:57:16;8.80;;;2.53;;
74074;SDS011;62428;51.412;5.432;2022-08-04T13:59:47;6.13;;;2.47;;
74074;SDS011;62428;51.412;5.432;2022-08-04T14:03:00;5.63;;;2.17;;
74074;SDS011;62428;51.412;5.432;2022-08-04T14:05:12;8.13;;;2.75;;
74074;SDS011;62428;51.412;5.432;2022-08-04T14:08:22;9.02;;;3.00;;
74074;SDS011;62428;51.412;5.432;2022-08-04T14:10:51;9.57;;;2.87;;
74074;SDS011;62428;51.412;5.432;2022-08-04T14:13:27;7.20;;;3.20;;
74074;SDS011;62428;51.412;5.432;2022-08-04T14:15:54;6.15;;;2.78;;
74074;SDS011;62428;51.412;5.432;2022-08-04T14:18:21;7.50;;;3.03;;
74074;SDS011;62428;51.412;5.432;2022-08-04T14:21:01;9.35;;;2.70;;
74074;SDS011;62428;51.412;5.432;2022-08-04T14:23:36;9.38;;;2.10;;
74074;SDS011;62428;51.412;5.432;2022-08-04T14:26:13;9.25;;;3.17;;
74074;SDS011;62428;51.412;5.432;2022-08-04T14:28:40;6.80;;;2.90;;
74074;SDS011;62428;51.412;5.432;2022-08-04T14:31:09;10.20;;;3.15;;
74074;SDS011;62428;51.412;5.432;2022-08-04T14:33:38;7.93;;;2.90;;
74074;SDS011;62428;51.412;5.432;2022-08-04T14:36:04;7.53;;;2.42;;
74074;SDS011;62428;51.412;5.432;2022-08-04T14:38:44;7.88;;;2.58;;
74074;SDS011;62428;51.412;5.432;2022-08-04T14:41:12;9.80;;;2.57;;
74074;SDS011;62428;51.412;5.432;2022-08-04T14:43:54;5.68;;;2.72;;
74074;SDS011;62428;51.412;5.432;2022-08-04T14:46:22;5.43;;;2.45;;
74074;SDS011;62428;51.412;5.432;2022-08-04T14:51:37;5.63;;;3.08;;
74074;SDS011;62428;51.412;5.432;2022-08-04T14:54:11;8.27;;;2.83;;
74074;SDS011;62428;51.412;5.432;2022-08-04T14:56:39;10.30;;;2.95;;
74074;SDS011;62428;51.412;5.432;2022-08-04T14:59:07;12.55;;;2.85;;
74074;SDS011;62428;51.412;5.432;2022-08-04T15:01:35;5.15;;;2.22;;
74074;SDS011;62428;51.412;5.432;2022-08-04T15:04:02;6.43;;;2.80;;
74074;SDS011;62428;51.412;5.432;2022-08-04T15:06:29;7.03;;;2.57;;
74074;SDS011;62428;51.412;5.432;2022-08-04T15:08:57;5.15;;;2.67;;
74074;SDS011;62428;51.412;5.432;2022-08-04T15:11:24;5.70;;;3.35;;
74074;SDS011;62428;51.412;5.432;2022-08-04T15:13:51;5.32;;;2.63;;
74074;SDS011;62428;51.412;5.432;2022-08-04T15:16:17;7.40;;;2.80;;
74074;SDS011;62428;51.412;5.432;2022-08-04T15:18:43;6.23;;;3.47;;
74074;SDS011;62428;51.412;5.432;2022-08-04T15:21:09;6.00;;;3.25;;
74074;SDS011;62428;51.412;5.432;2022-08-04T15:23:34;8.93;;;3.90;;
74074;SDS011;62428;51.412;5.432;2022-08-04T15:26:01;5.28;;;2.78;;
74074;SDS011;62428;51.412;5.432;2022-08-04T15:28:28;8.05;;;2.92;;
74074;SDS011;62428;51.412;5.432;2022-08-04T15:30:55;5.80;;;2.83;;
74074;SDS011;62428;51.412;5.432;2022-08-04T15:33:23;6.50;;;3.35;;
74074;SDS011;62428;51.412;5.432;2022-08-04T15:36:08;8.40;;;3.35;;
74074;SDS011;62428;51.412;5.432;2022-08-04T15:38:38;8.38;;;3.08;;
74074;SDS011;62428;51.412;5.432;2022-08-04T15:41:34;7.20;;;3.97;;
74074;SDS011;62428;51.412;5.432;2022-08-04T15:47:11;7.63;;;3.50;;
74074;SDS011;62428;51.412;5.432;2022-08-04T15:49:38;9.60;;;3.72;;
74074;SDS011;62428;51.412;5.432;2022-08-04T15:52:08;6.18;;;2.65;;
74074;SDS011;62428;51.412;5.432;2022-08-04T15:54:39;10.65;;;4.03;;
74074;SDS011;62428;51.412;5.432;2022-08-04T15:57:05;7.70;;;3.30;;
74074;SDS011;62428;51.412;5.432;2022-08-04T16:10:34;7.03;;;2.53;;
74074;SDS011;62428;51.412;5.432;2022-08-04T16:13:09;5.57;;;2.50;;
74074;SDS011;62428;51.412;5.432;2022-08-04T16:15:49;5.70;;;2.50;;
74074;SDS011;62428;51.412;5.432;2022-08-04T16:18:20;6.53;;;2.45;;
74074;SDS011;62428;51.412;5.432;2022-08-04T16:21:18;6.53;;;2.40;;
74074;SDS011;62428;51.412;5.432;2022-08-04T16:24:11;4.32;;;2.13;;
74074;SDS011;62428;51.412;5.432;2022-08-04T16:26:42;6.38;;;1.90;;
74074;SDS011;62428;51.412;5.432;2022-08-04T16:34:34;7.57;;;2.30;;
74074;SDS011;62428;51.412;5.432;2022-08-04T16:37:00;7.07;;;2.50;;
74074;SDS011;62428;51.412;5.432;2022-08-04T16:39:28;7.82;;;2.58;;
74074;SDS011;62428;51.412;5.432;2022-08-04T16:41:54;6.18;;;2.03;;
74074;SDS011;62428;51.412;5.432;2022-08-04T16:46:58;6.47;;;2.93;;
74074;SDS011;62428;51.412;5.432;2022-08-04T16:49:26;11.95;;;2.80;;
74074;SDS011;62428;51.412;5.432;2022-08-04T16:51:53;5.30;;;2.95;;
74074;SDS011;62428;51.412;5.432;2022-08-04T16:54:22;4.03;;;2.25;;
74074;SDS011;62428;51.412;5.432;2022-08-04T16:56:48;5.55;;;2.30;;
74074;SDS011;62428;51.412;5.432;2022-08-04T16:59:16;4.90;;;2.83;;
74074;SDS011;62428;51.412;5.432;2022-08-04T17:01:49;6.03;;;2.85;;
74074;SDS011;62428;51.412;5.432;2022-08-04T17:07:10;6.50;;;2.50;;
74074;SDS011;62428;51.412;5.432;2022-08-04T17:09:36;7.53;;;3.10;;
74074;SDS011;62428;51.412;5.432;2022-08-04T17:12:13;6.72;;;2.45;;
74074;SDS011;62428;51.412;5.432;2022-08-04T17:14:38;5.20;;;2.80;;
74074;SDS011;62428;51.412;5.432;2022-08-04T17:17:03;6.70;;;2.90;;
74074;SDS011;62428;51.412;5.432;2022-08-04T17:19:29;7.13;;;2.90;;
74074;SDS011;62428;51.412;5.432;2022-08-04T17:21:56;5.47;;;3.20;;
74074;SDS011;62428;51.412;5.432;2022-08-04T17:24:27;8.33;;;2.40;;
74074;SDS011;62428;51.412;5.432;2022-08-04T17:26:53;6.88;;;2.88;;
74074;SDS011;62428;51.412;5.432;2022-08-04T17:29:18;7.53;;;3.00;;
74074;SDS011;62428;51.412;5.432;2022-08-04T17:31:43;5.03;;;2.90;;
74074;SDS011;62428;51.412;5.432;2022-08-04T17:34:10;6.63;;;2.93;;
74074;SDS011;62428;51.412;5.432;2022-08-04T17:36:38;8.18;;;2.85;;
74074;SDS011;62428;51.412;5.432;2022-08-04T17:39:19;5.80;;;2.97;;
74074;SDS011;62428;51.412;5.432;2022-08-04T17:41:47;6.18;;;2.70;;
74074;SDS011;62428;51.412;5.432;2022-08-04T17:44:20;6.03;;;2.75;;
74074;SDS011;62428;51.412;5.432;2022-08-04T17:46:45;8.10;;;2.47;;
74074;SDS011;62428;51.412;5.432;2022-08-04T17:51:46;3.92;;;2.13;;
74074;SDS011;62428;51.412;5.432;2022-08-04T17:54:12;3.65;;;2.00;;
74074;SDS011;62428;51.412;5.432;2022-08-04T17:56:47;6.07;;;1.87;;
74074;SDS011;62428;51.412;5.432;2022-08-04T18:02:04;4.80;;;1.58;;
74074;SDS011;62428;51.412;5.432;2022-08-04T18:09:31;4.83;;;1.97;;
74074;SDS011;62428;51.412;5.432;2022-08-04T18:12:04;6.07;;;1.77;;
74074;SDS011;62428;51.412;5.432;2022-08-04T18:20:00;4.70;;;1.98;;
74074;SDS011;62428;51.412;5.432;2022-08-04T18:22:28;6.03;;;1.63;;
74074;SDS011;62428;51.412;5.432;2022-08-04T18:24:53;4.05;;;1.77;;
74074;SDS011;62428;51.412;5.432;2022-08-04T18:27:20;4.37;;;1.30;;
74074;SDS011;62428;51.412;5.432;2022-08-04T18:29:47;4.20;;;1.55;;
74074;SDS011;62428;51.412;5.432;2022-08-04T18:32:13;10.93;;;1.60;;
74074;SDS011;62428;51.412;5.432;2022-08-04T18:34:39;4.80;;;1.58;;
74074;SDS011;62428;51.412;5.432;2022-08-04T18:37:04;3.60;;;1.13;;
74074;SDS011;62428;51.412;5.432;2022-08-04T18:39:30;6.63;;;1.77;;
74074;SDS011;62428;51.412;5.432;2022-08-04T18:41:55;3.43;;;1.43;;
74074;SDS011;62428;51.412;5.432;2022-08-04T18:44:23;5.82;;;1.60;;
74074;SDS011;62428;51.412;5.432;2022-08-04T18:46:50;5.47;;;1.67;;
74074;SDS011;62428;51.412;5.432;2022-08-04T18:49:16;2.58;;;1.13;;
74074;SDS011;62428;51.412;5.432;2022-08-04T18:51:41;4.13;;;1.83;;
74074;SDS011;62428;51.412;5.432;2022-08-04T18:54:07;6.17;;;1.63;;
74074;SDS011;62428;51.412;5.432;2022-08-04T18:56:33;4.27;;;1.40;;
74074;SDS011;62428;51.412;5.432;2022-08-04T18:58:59;6.55;;;1.85;;
74074;SDS011;62428;51.412;5.432;2022-08-04T19:01:26;5.28;;;1.58;;
74074;SDS011;62428;51.412;5.432;2022-08-04T19:03:52;3.63;;;1.10;;
74074;SDS011;62428;51.412;5.432;2022-08-04T19:06:18;4.03;;;1.40;;
74074;SDS011;62428;51.412;5.432;2022-08-04T19:08:46;3.78;;;1.27;;
74074;SDS011;62428;51.412;5.432;2022-08-04T19:11:11;4.67;;;1.30;;
74074;SDS011;62428;51.412;5.432;2022-08-04T19:13:38;7.10;;;1.50;;
74074;SDS011;62428;51.412;5.432;2022-08-04T19:16:06;3.83;;;1.23;;
74074;SDS011;62428;51.412;5.432;2022-08-04T19:18:32;5.57;;;1.50;;
74074;SDS011;62428;51.412;5.432;2022-08-04T19:20:58;2.67;;;1.00;;
74074;SDS011;62428;51.412;5.432;2022-08-04T19:23:24;3.10;;;1.20;;
74074;SDS011;62428;51.412;5.432;2022-08-04T19:25:50;3.40;;;1.25;;
74074;SDS011;62428;51.412;5.432;2022-08-04T19:28:16;4.13;;;1.20;;